Portada
METAR-TAF:

METAR-TAF

Aeropuertos :

Chongqing, China

Aeropuerto Internacional de Chongqing-Jiangbei

latitud: 29-31N, longitud: 106-29E, altitud: 351 m

Observación

El informe se hizo hace 1 hora y 4 minutos, a las 12:00 UTC
Viento 6 kt del norte
Temperatura 17°C
Humedad 45%
Presión 1023 hPa
Visibilidad 10 km o más
sin nubes por debajo de 1500 m y sin presencia de cumulonimbus.

METAR: ZUCK 261200Z 01003MPS CAVOK 17/05 Q1023 NOSIG

Hora: 21:04 (13:04 UTC)

Pronóstico

El informe se hizo hace 4 horas y 1 minutos, a las 09:03 UTC
Pronóstico válido del 26 a las 12 UTC al 27 a las 12 UTC
Viento 6 kt del oeste-noroeste
Visibilidad: 5000 m
Nubes dispersas a una altura de 4000 ft
calima

TAF: ZUCK 260903Z 2612/2712 29003MPS 5000 HZ SCT040 TX22/2708Z TN10/2622Z

Observaciones y pronósticos meteorológicos de más de 4000 aeropuertos (mensajes METAR y TAF).

Los puntos amarillos y rojos representan las estaciones disponibles.

Ponga el ratón en el punto deseado para ver el nombre de la estación.

Haga clic para ver las observaciones y los pronósticos meteorológicos.

Para cambiar el mapa : haga clic en los botones verdes con una cruz de color negro para hacer un zoom, en el botón verde con un guión para alejar o en las flechas verdes para mapas adyacentes.


METAR-TAF: